Time;durP1;ratioP1;P1;durP2;ratioP2;P2;SDS_P1;SDS_P2;PMS_P1;PMS_P2;Temp;Humidity;BMP_temperature;BMP_pressure;BME280_temperature;BME280_humidity;BME280_pressure;Samples;Min_cycle;Max_cycle;Signal;HPM_P1;HPM_P2
2022/01/24 00:03:21;;;;;;;;;;;;;;;-2.00;50.74;101555.81;4401986;32;35237;-83
2022/01/24 00:09:44;;;;;;;;;;;;;;;-2.21;50.77;101553.56;4384056;32;34942;-83
2022/01/24 00:28:23;;;;;;;;;;;;;;;;;;;;;
2022/01/24 00:37:40;;;;;;;;;;;;;;;;;;;;;
2022/01/24 01:03:38;;;;;;;;;;;;;;;-3.06;52.41;101595.50;4294603;33;31165;-83
2022/01/24 01:24:49;;;;;;;;;;;;;;;;;;;;;
2022/01/24 01:27:56;;;;;;;;;;;;;;;;;;;;;
2022/01/24 01:31:02;;;;;;;;;;;;;;;;;;;;;
2022/01/24 01:52:49;;;;;;;;;;;;;;;-3.69;54.19;101580.50;4393113;32;33657;-80
2022/01/24 01:58:11;;;;;;;;;;;;;;;-3.61;53.25;101581.28;4379246;32;34069;-80
2022/01/24 02:00:43;;;;;;;;;;;;;;;-3.54;52.69;101585.53;4398450;32;34370;-80
2022/01/24 02:03:11;;;;;;;;;;;;;;;-3.85;53.51;101586.69;4398716;32;33538;-81
2022/01/24 02:05:40;;;;;;;;;;;;;;;-3.59;52.49;101585.56;4429777;32;33804;-80
2022/01/24 02:08:08;;;;;;;;;;;;;;;-3.71;52.56;101593.50;4443183;32;34836;-80
2022/01/24 02:10:37;;;;;;;;;;;;;;;-3.68;52.40;101592.63;4418512;32;35689;-79
2022/01/24 02:13:05;;;;;;;;;;;;;;;-4.27;54.11;101587.00;4431828;32;34299;-80
2022/01/24 02:25:55;;;;;;;;;;;;;;;-4.54;54.96;101607.91;4438708;32;34729;-79
2022/01/24 02:28:25;;;;;;;;;;;;;;;-4.54;55.16;101611.34;4442362;32;36496;-80
2022/01/24 02:33:44;;;;;;;;;;;;;;;-4.19;54.55;101603.37;4431653;32;33229;-80
2022/01/24 02:36:16;;;;;;;;;;;;;;;-4.03;53.86;101600.69;4417575;32;32983;-80
2022/01/24 02:39:12;;;;;;;;;;;;;;;-4.18;53.91;101605.97;4442768;32;34454;-80
2022/01/24 02:49:59;;;;;;;;;;;;;;;-4.14;54.36;101614.62;4442484;32;34021;-80
2022/01/24 02:52:28;;;;;;;;;;;;;;;-4.11;54.14;101612.87;4426893;32;34201;-80
2022/01/24 02:54:55;;;;;;;;;;;;;;;-4.33;54.81;101611.25;4427082;32;32847;-80
2022/01/24 02:57:23;;;;;;;;;;;;;;;-4.10;54.72;101609.37;4426598;32;33424;-80
2022/01/24 02:59:51;;;;;;;;;;;;;;;-3.97;54.12;101607.56;4414243;32;33556;-80
2022/01/24 03:02:19;;;;;;;;;;;;;;;-4.40;55.18;101611.28;4426299;32;34633;-80
2022/01/24 03:04:47;;;;;;;;;;;;;;;-4.08;54.60;101606.78;4435457;32;33441;-80
2022/01/24 03:07:15;;;;;;;;;;;;;;;-4.15;54.29;101608.53;4414609;32;32366;-80
2022/01/24 03:09:45;;;;;;;;;;;;;;;-4.45;54.97;101608.72;4425861;32;34498;-80
2022/01/24 03:12:14;;;;;;;;;;;;;;;-4.26;54.55;101614.69;4426678;32;35232;-80
2022/01/24 03:14:42;;;;;;;;;;;;;;;-4.31;54.57;101609.53;4426294;32;32733;-80
2022/01/24 03:17:09;;;;;;;;;;;;;;;-4.33;54.68;101611.25;4422065;32;33538;-80
2022/01/24 03:19:38;;;;;;;;;;;;;;;-4.30;54.72;101616.44;4403282;32;35335;-80
2022/01/24 03:22:08;;;;;;;;;;;;;;;-4.26;53.99;101614.69;4425910;32;33440;-79
2022/01/24 03:24:36;;;;;;;;;;;;;;;-4.33;54.08;101624.22;4415594;32;32214;-79
2022/01/24 03:27:04;;;;;;;;;;;;;;;-4.46;54.63;101624.28;4426501;32;35161;-80
2022/01/24 03:29:33;;;;;;;;;;;;;;;-4.45;54.12;101628.66;4403266;32;34255;-80
2022/01/24 03:32:01;;;;;;;;;;;;;;;-4.51;53.92;101634.72;4414433;32;33569;-80
2022/01/24 03:34:29;;;;;;;;;;;;;;;-4.48;53.54;101633.84;4401391;32;32912;-80
2022/01/24 03:36:57;;;;;;;;;;;;;;;-4.81;53.68;101640.03;4407896;32;32780;-79
2022/01/24 03:39:25;;;;;;;;;;;;;;;-5.06;54.13;101637.50;4416047;32;35280;-80
2022/01/24 03:41:53;;;;;;;;;;;;;;;-5.05;54.28;101641.81;4413713;32;34339;-79
2022/01/24 03:44:23;;;;;;;;;;;;;;;-5.41;55.92;101645.34;4425805;32;33671;-80
2022/01/24 03:49:48;;;;;;;;;;;;;;;-4.89;54.85;101639.19;4427872;32;35382;-80
2022/01/24 03:52:16;;;;;;;;;;;;;;;-4.66;54.49;101645.19;4427722;32;33044;-80
2022/01/24 03:54:45;;;;;;;;;;;;;;;-4.76;54.63;101633.09;4443628;32;33016;-79
2022/01/24 03:57:14;;;;;;;;;;;;;;;-4.54;54.25;101641.69;4439404;32;34221;-80
2022/01/24 03:59:41;;;;;;;;;;;;;;;-4.48;54.17;101626.03;4432043;32;36280;-79
2022/01/24 04:02:10;;;;;;;;;;;;;;;-4.60;54.43;101633.91;4420254;32;35481;-80
2022/01/24 04:04:38;;;;;;;;;;;;;;;-4.45;53.99;101634.69;4417566;32;32065;-79
2022/01/24 04:07:12;;;;;;;;;;;;;;;-4.75;55.03;101637.41;4427873;32;34711;-79
2022/01/24 04:09:41;;;;;;;;;;;;;;;-5.06;55.87;101634.91;4418351;32;34836;-80
2022/01/24 04:12:09;;;;;;;;;;;;;;;-4.94;55.32;101640.94;4438945;32;34116;-80
2022/01/24 04:14:53;;;;;;;;;;;;;;;-4.77;55.08;101656.47;4443922;32;32956;-79
2022/01/24 04:17:36;;;;;;;;;;;;;;;-4.72;54.73;101649.53;4440903;32;33271;-79
2022/01/24 04:22:53;;;;;;;;;;;;;;;-4.59;54.25;101661.59;4444384;32;34179;-80
2022/01/24 04:25:23;;;;;;;;;;;;;;;-5.02;54.81;101654.78;4440748;32;33527;-79
2022/01/24 04:27:53;;;;;;;;;;;;;;;-5.33;56.46;101655.69;4443144;32;33784;-79
2022/01/24 04:30:26;;;;;;;;;;;;;;;-5.05;56.06;101649.59;4443411;32;35781;-80
2022/01/24 04:32:55;;;;;;;;;;;;;;;-5.19;56.60;101652.22;4425358;32;34294;-80
2022/01/24 04:35:22;;;;;;;;;;;;;;;-4.88;55.44;101668.59;4443665;32;34065;-80
2022/01/24 04:37:50;;;;;;;;;;;;;;;-5.08;55.86;101667.78;4437548;32;33344;-79
2022/01/24 04:40:18;;;;;;;;;;;;;;;-5.54;57.35;101677.31;4444999;32;36136;-80
2022/01/24 04:42:52;;;;;;;;;;;;;;;-5.13;56.33;101683.34;4443346;32;35014;-79
2022/01/24 04:45:49;;;;;;;;;;;;;;;-5.34;56.02;101677.31;4427992;32;32394;-79
2022/01/24 04:54:25;;;;;;;;;;;;;;;-5.41;56.33;101684.25;4439574;32;33865;-79
2022/01/24 04:56:02;;;;;;;;;;;;;;;-5.50;55.73;101679.06;4434768;32;32859;-79
2022/01/24 04:58:30;;;;;;;;;;;;;;;-5.04;54.56;101675.56;4430242;32;33116;-79
2022/01/24 05:00:59;;;;;;;;;;;;;;;-5.03;54.09;101679.88;4438786;32;34666;-80
2022/01/24 05:03:38;;;;;;;;;;;;;;;-4.97;53.89;101681.59;4426676;26;34522;-79
2022/01/24 05:06:06;;;;;;;;;;;;;;;-5.19;54.32;101685.09;4367164;32;32832;-82
2022/01/24 05:08:34;;;;;;;;;;;;;;;-5.30;55.53;101697.19;4351798;32;33863;-82
2022/01/24 05:11:09;;;;;;;;;;;;;;;-5.22;55.71;101700.66;4352237;32;34568;-82
2022/01/24 05:24:33;;;;;;;;;;;;;;;-5.15;56.03;101721.41;4372404;32;34799;-82
2022/01/24 05:27:01;;;;;;;;;;;;;;;-5.36;55.95;101718.81;4367369;32;33076;-83
2022/01/24 05:29:32;;;;;;;;;;;;;;;-5.12;55.55;101708.44;4367021;32;34894;-82
2022/01/24 05:31:59;;;;;;;;;;;;;;;-5.23;55.70;101706.69;4379526;32;35064;-81
2022/01/24 05:34:27;;;;;;;;;;;;;;;-5.23;55.50;101705.00;4372521;32;33767;-84
2022/01/24 05:36:59;;;;;;;;;;;;;;;-5.42;56.41;101713.62;4369356;32;33637;-83
2022/01/24 05:39:26;;;;;;;;;;;;;;;-5.18;55.91;101713.62;4370462;32;34076;-84
2022/01/24 05:41:53;;;;;;;;;;;;;;;-5.07;55.50;101719.66;4367442;32;35945;-83
2022/01/24 05:44:21;;;;;;;;;;;;;;;-5.16;56.17;101721.41;4373388;32;35311;-87
2022/01/24 05:46:48;;;;;;;;;;;;;;;-5.05;55.53;101717.06;4367037;32;33374;-84
2022/01/24 05:49:17;;;;;;;;;;;;;;;-5.01;55.13;101716.22;4367186;32;33753;-84
2022/01/24 05:51:45;;;;;;;;;;;;;;;-5.05;55.02;101715.34;4368144;32;35385;-80
2022/01/24 05:54:14;;;;;;;;;;;;;;;-5.02;54.59;101728.31;4359967;32;33934;-81
2022/01/24 05:56:41;;;;;;;;;;;;;;;-5.44;54.96;101735.25;4367361;32;32953;-78
2022/01/24 05:59:08;;;;;;;;;;;;;;;-5.46;54.28;101731.78;4366819;32;34237;-87
2022/01/24 06:01:36;;;;;;;;;;;;;;;-5.50;54.77;101743.88;4354128;32;34167;-81
2022/01/24 06:04:04;;;;;;;;;;;;;;;-5.22;53.83;101737.84;4368709;32;34062;-82
2022/01/24 06:06:31;;;;;;;;;;;;;;;-5.55;54.82;101745.59;4368021;32;33412;-82
2022/01/24 06:08:59;;;;;;;;;;;;;;;-6.00;56.22;101748.97;4367087;32;34489;-82
2022/01/24 06:11:27;;;;;;;;;;;;;;;-5.72;55.93;101749.03;4367383;32;35266;-82
2022/01/24 06:13:57;;;;;;;;;;;;;;;-5.63;55.97;101746.44;4373715;32;34871;-82
2022/01/24 06:16:24;;;;;;;;;;;;;;;-5.79;55.77;101754.22;4372367;32;33131;-84
2022/01/24 06:18:53;;;;;;;;;;;;;;;-5.67;56.09;101746.44;4372408;32;34897;-81
2022/01/24 06:21:21;;;;;;;;;;;;;;;-5.59;56.21;101748.16;4354140;32;35321;-82
2022/01/24 06:23:52;;;;;;;;;;;;;;;-5.35;55.16;101749.06;4366446;32;35141;-82
2022/01/24 06:26:20;;;;;;;;;;;;;;;-5.41;55.12;101758.56;4368120;32;32892;-81
2022/01/24 06:28:47;;;;;;;;;;;;;;;-5.68;56.17;101763.69;4354582;32;32396;-81
2022/01/24 06:31:15;;;;;;;;;;;;;;;-5.47;55.64;101768.94;4366391;32;33561;-81
2022/01/24 06:33:42;;;;;;;;;;;;;;;-5.37;55.57;101766.34;4355777;32;33232;-83
2022/01/24 06:36:10;;;;;;;;;;;;;;;-5.32;55.39;101775.03;4366765;32;32826;-81
2022/01/24 06:38:37;;;;;;;;;;;;;;;-5.39;55.26;101777.56;4366511;32;33456;-82
2022/01/24 06:41:06;;;;;;;;;;;;;;;-5.24;54.25;101775.91;4372172;32;34921;-84
2022/01/24 06:43:33;;;;;;;;;;;;;;;-5.53;55.08;101776.72;4373719;32;33957;-82
2022/01/24 06:46:01;;;;;;;;;;;;;;;-5.62;56.36;101781.88;4366809;32;33294;-86
2022/01/24 06:48:28;;;;;;;;;;;;;;;-5.43;55.93;101781.03;4375965;32;35047;-86
2022/01/24 06:50:56;;;;;;;;;;;;;;;-5.47;56.06;101785.34;4375689;32;34552;-86
2022/01/24 06:53:23;;;;;;;;;;;;;;;-5.38;56.25;101790.56;4367680;32;33012;-81
2022/01/24 06:55:51;;;;;;;;;;;;;;;-6.15;58.35;101798.97;4359073;32;34670;-83
2022/01/24 06:58:18;;;;;;;;;;;;;;;-5.47;57.11;101797.47;4367489;32;34091;-85
2022/01/24 07:00:47;;;;;;;;;;;;;;;-5.34;56.57;101797.50;4367713;32;36111;-81
2022/01/24 07:03:15;;;;;;;;;;;;;;;-5.38;56.77;101806.13;4369096;32;34854;-86
2022/01/24 07:05:42;;;;;;;;;;;;;;;-5.24;56.57;101807.03;4368818;32;33463;-82
2022/01/24 07:08:10;;;;;;;;;;;;;;;-5.07;55.97;101813.06;4378032;32;34308;-83
2022/01/24 07:10:38;;;;;;;;;;;;;;;-5.31;56.86;101817.38;4363459;32;33742;-81
2022/01/24 07:13:05;;;;;;;;;;;;;;;-5.50;57.69;101813.88;4376889;32;34599;-84
2022/01/24 07:15:37;;;;;;;;;;;;;;;-5.12;56.73;101809.63;4367750;32;33769;-82
2022/01/24 07:20:35;;;;;;;;;;;;;;;-4.78;55.71;101818.28;4367161;32;35312;-80
2022/01/24 07:23:02;;;;;;;;;;;;;;;-5.13;57.05;101819.97;4365861;32;36502;-82
2022/01/24 07:25:30;;;;;;;;;;;;;;;-5.13;56.89;101825.16;4366521;32;34114;-82
2022/01/24 07:27:58;;;;;;;;;;;;;;;-5.74;59.55;101822.44;4367536;32;34602;-83
2022/01/24 07:30:25;;;;;;;;;;;;;;;-5.47;59.57;101834.63;4367423;32;36115;-83
2022/01/24 07:32:52;;;;;;;;;;;;;;;-5.63;60.17;101832.00;4360590;32;35854;-82
2022/01/24 07:35:20;;;;;;;;;;;;;;;-4.96;58.41;101837.31;4373938;32;32679;-85
2022/01/24 07:37:47;;;;;;;;;;;;;;;-4.93;58.92;101839.91;4374205;32;34353;-83
2022/01/24 07:40:14;;;;;;;;;;;;;;;-4.46;57.79;101842.47;4360982;32;34319;-83
2022/01/24 07:45:20;;;;;;;;;;;;;;;-4.31;57.75;101850.25;4372950;32;32977;-83
2022/01/24 07:47:48;;;;;;;;;;;;;;;-4.14;57.99;101846.72;4360792;32;33594;-82
2022/01/24 07:50:17;;;;;;;;;;;;;;;-4.10;58.01;101852.78;4365169;32;34969;-81
2022/01/24 07:52:45;;;;;;;;;;;;;;;-3.86;57.67;101847.53;4361266;32;34430;-84
2022/01/24 07:55:12;;;;;;;;;;;;;;;-3.21;56.10;101859.34;4367675;32;32882;-82
2022/01/24 07:57:40;;;;;;;;;;;;;;;-3.41;56.46;101852.53;4354133;32;33187;-82
2022/01/24 08:00:09;;;;;;;;;;;;;;;-2.96;55.66;101858.31;4368759;32;35236;-82
2022/01/24 08:02:38;;;;;;;;;;;;;;;-3.15;56.57;101856.72;4367247;32;34406;-82
2022/01/24 08:05:07;;;;;;;;;;;;;;;-2.93;56.80;101854.84;4368310;32;32818;-81
2022/01/24 08:07:35;;;;;;;;;;;;;;;-2.90;56.83;101854.81;4374885;32;34166;-81
2022/01/24 08:10:02;;;;;;;;;;;;;;;-2.67;56.24;101861.56;4373163;32;34605;-82
2022/01/24 08:12:31;;;;;;;;;;;;;;;-2.46;55.37;101866.63;4376292;32;33916;-82
2022/01/24 08:15:02;;;;;;;;;;;;;;;-2.10;54.73;101864.50;4377300;32;31321;-83
2022/01/24 08:17:30;;;;;;;;;;;;;;;-1.94;54.46;101865.22;4367608;32;33240;-82
2022/01/24 08:19:58;;;;;;;;;;;;;;;-1.69;53.84;101864.06;4367411;32;35120;-82
2022/01/24 08:22:26;;;;;;;;;;;;;;;-1.57;53.59;101866.50;4356700;32;34765;-81
2022/01/24 08:24:53;;;;;;;;;;;;;;;-1.35;51.66;101866.22;4378959;32;33732;-82
2022/01/24 08:27:22;;;;;;;;;;;;;;;-1.80;53.70;101866.78;4378684;32;34817;-85
2022/01/24 08:29:50;;;;;;;;;;;;;;;-1.56;53.22;101873.47;4354800;32;34909;-81
2022/01/24 08:32:18;;;;;;;;;;;;;;;-1.03;52.07;101865.78;4355828;32;34151;-81
2022/01/24 08:34:45;;;;;;;;;;;;;;;-1.06;52.28;101876.28;4355504;32;31513;-82
2022/01/24 08:37:30;;;;;;;;;;;;;;;-0.90;51.78;101878.63;4356072;32;34871;-81
2022/01/24 08:40:00;;;;;;;;;;;;;;;-0.54;51.53;101877.19;4366864;32;34162;-81
2022/01/24 08:47:57;;;;;;;;;;;;;;;-0.07;49.71;101867.66;4367476;32;34065;-82
2022/01/24 08:50:27;;;;;;;;;;;;;;;-0.03;50.23;101878.94;4366307;32;35954;-83
2022/01/24 08:52:59;;;;;;;;;;;;;;;0.12;50.00;101872.50;4354636;32;34576;-81
2022/01/24 08:55:27;;;;;;;;;;;;;;;0.20;50.00;101869.75;4368814;32;34100;-83
2022/01/24 08:57:55;;;;;;;;;;;;;;;0.33;50.00;101873.84;4353817;32;34770;-81
2022/01/24 09:00:23;;;;;;;;;;;;;;;0.34;49.13;101873.84;4366146;32;34637;-82
2022/01/24 09:02:50;;;;;;;;;;;;;;;0.10;49.62;101873.44;4365978;32;34503;-81
2022/01/24 09:05:22;;;;;;;;;;;;;;;0.47;48.79;101875.28;4353367;32;31288;-83
2022/01/24 09:07:49;;;;;;;;;;;;;;;0.59;48.33;101869.78;4368376;32;33923;-81
2022/01/24 09:10:17;;;;;;;;;;;;;;;0.92;47.80;101866.47;4366776;32;33886;-81
2022/01/24 09:12:45;;;;;;;;;;;;;;;1.30;42.85;101873.44;4367201;32;34930;-81
2022/01/24 09:15:14;;;;;;;;;;;;;;;0.88;45.51;101869.19;4355170;32;33521;-82
2022/01/24 09:17:43;;;;;;;;;;;;;;;1.48;44.07;101867.75;4373796;32;33977;-83
2022/01/24 09:20:11;;;;;;;;;;;;;;;1.32;44.88;101864.63;4367150;32;35569;-81
2022/01/24 09:22:43;;;;;;;;;;;;;;;1.55;42.94;101879.81;4367460;32;33958;-83
2022/01/24 09:25:10;;;;;;;;;;;;;;;1.25;45.42;101883.19;4370232;32;31991;-81
2022/01/24 09:27:38;;;;;;;;;;;;;;;1.62;42.11;101881.41;4354574;32;32247;-82
2022/01/24 09:30:08;;;;;;;;;;;;;;;1.76;42.60;101876.66;4376214;32;35696;-81
2022/01/24 09:32:35;;;;;;;;;;;;;;;2.01;40.74;101873.38;4370798;32;35186;-80
2022/01/24 09:35:04;;;;;;;;;;;;;;;1.78;39.70;101878.34;4369104;32;32984;-81
2022/01/24 09:37:31;;;;;;;;;;;;;;;1.65;40.77;101884.81;4376211;32;34008;-79
2022/01/24 09:39:59;;;;;;;;;;;;;;;1.69;40.60;101881.19;4376016;32;35492;-81
2022/01/24 09:42:26;;;;;;;;;;;;;;;1.84;39.77;101878.19;4355460;32;32897;-80
2022/01/24 09:44:55;;;;;;;;;;;;;;;0.91;40.83;101879.59;4372079;32;33852;-82
2022/01/24 09:47:22;;;;;;;;;;;;;;;1.24;40.40;101873.59;4376730;32;34930;-80
2022/01/24 09:49:50;;;;;;;;;;;;;;;1.44;41.95;101871.34;4366954;32;35073;-81
2022/01/24 09:52:18;;;;;;;;;;;;;;;1.65;39.90;101863.81;4367395;32;33917;-79
2022/01/24 09:54:46;;;;;;;;;;;;;;;1.61;39.40;101861.31;4367871;32;32984;-79
2022/01/24 09:57:13;;;;;;;;;;;;;;;1.37;41.62;101860.16;4356034;32;34393;-82
2022/01/24 09:59:41;;;;;;;;;;;;;;;1.81;40.20;101856.41;4365940;32;32875;-80
2022/01/24 10:02:08;;;;;;;;;;;;;;;1.67;39.58;101861.16;4368223;32;34938;-80
2022/01/24 10:04:36;;;;;;;;;;;;;;;2.01;40.56;101849.75;4379163;32;33150;-80
2022/01/24 10:07:07;;;;;;;;;;;;;;;1.81;39.58;101859.03;4375197;32;33792;-82
2022/01/24 10:09:56;;;;;;;;;;;;;;;2.11;38.91;101860.84;4358691;32;34554;-79
2022/01/24 10:17:40;;;;;;;;;;;;;;;2.15;39.80;101854.63;4368694;32;33343;-79
2022/01/24 10:20:21;;;;;;;;;;;;;;;2.48;38.02;101853.66;4373080;32;36057;-80
2022/01/24 10:23:07;;;;;;;;;;;;;;;2.62;38.90;101846.25;4374729;32;34608;-79
2022/01/24 10:25:59;;;;;;;;;;;;;;;2.85;37.02;101847.31;4375321;32;33361;-79
2022/01/24 10:28:32;;;;;;;;;;;;;;;2.72;35.70;101852.97;4367021;32;34181;-80
2022/01/24 10:31:34;;;;;;;;;;;;;;;2.54;38.21;101856.13;4375232;32;35029;-82
2022/01/24 10:34:11;;;;;;;;;;;;;;;2.99;37.19;101848.59;4340187;32;34932;-79
2022/01/24 10:36:39;;;;;;;;;;;;;;;3.43;37.03;101849.81;4311801;32;32452;-80
2022/01/24 10:39:13;;;;;;;;;;;;;;;3.63;37.40;101845.62;4340837;32;34623;-79
2022/01/24 10:41:55;;;;;;;;;;;;;;;3.82;34.27;101844.09;4339407;32;35872;-79
2022/01/24 10:44:30;;;;;;;;;;;;;;;3.26;35.66;101847.72;4338895;32;34767;-79
2022/01/24 10:47:23;;;;;;;;;;;;;;;3.60;36.94;101847.50;4312649;32;31448;-79
2022/01/24 10:49:52;;;;;;;;;;;;;;;3.07;37.88;101849.22;4311876;32;33639;-80
2022/01/24 10:52:24;;;;;;;;;;;;;;;2.96;37.31;101848.66;4312048;32;34522;-80
2022/01/24 10:55:12;;;;;;;;;;;;;;;3.58;37.90;101841.44;4318555;32;35043;-79
2022/01/24 10:58:08;;;;;;;;;;;;;;;3.53;36.84;101838.94;4316446;32;33917;-80
2022/01/24 11:00:41;;;;;;;;;;;;;;;3.81;35.85;101825.69;4318144;32;34630;-79
2022/01/24 11:03:19;;;;;;;;;;;;;;;3.82;34.88;101823.03;4312159;32;35255;-79
2022/01/24 11:05:59;;;;;;;;;;;;;;;4.26;35.66;101830.19;4317555;32;33856;-80
2022/01/24 11:08:26;;;;;;;;;;;;;;;4.10;34.92;101833.44;4343407;32;33348;-79
2022/01/24 11:10:54;;;;;;;;;;;;;;;4.16;35.43;101825.31;4355865;32;33506;-80
2022/01/24 11:13:30;;;;;;;;;;;;;;;4.02;35.07;101825.81;4368628;32;36266;-79
2022/01/24 11:16:00;;;;;;;;;;;;;;;4.21;35.37;101820.72;4369307;32;34119;-79
2022/01/24 11:18:31;;;;;;;;;;;;;;;4.46;35.71;101819.81;4361956;32;34447;-81
2022/01/24 11:21:11;;;;;;;;;;;;;;;4.63;34.27;101824.44;4377907;32;34243;-79
2022/01/24 11:23:40;;;;;;;;;;;;;;;4.55;33.91;101834.41;4362793;32;33426;-78
2022/01/24 11:26:08;;;;;;;;;;;;;;;4.78;33.24;101827.34;4380589;32;34857;-79
2022/01/24 11:28:36;;;;;;;;;;;;;;;4.43;33.66;101830.44;4376704;32;33419;-79
2022/01/24 11:31:06;;;;;;;;;;;;;;;5.06;33.29;101829.75;4380500;32;34635;-82
2022/01/24 11:33:37;;;;;;;;;;;;;;;4.65;32.95;101828.72;4372155;32;35167;-81
2022/01/24 11:36:07;;;;;;;;;;;;;;;4.52;33.63;101826.63;4368284;32;34570;-81
2022/01/24 11:38:35;;;;;;;;;;;;;;;4.86;33.94;101825.28;4376847;32;31482;-80
2022/01/24 11:41:24;;;;;;;;;;;;;;;4.65;32.86;101817.31;4344155;32;34128;-79
2022/01/24 11:43:54;;;;;;;;;;;;;;;5.00;33.74;101812.38;4368480;32;34630;-79
2022/01/24 11:46:48;;;;;;;;;;;;;;;4.82;34.39;101815.75;4370027;32;35602;-81
2022/01/24 11:49:19;;;;;;;;;;;;;;;4.61;34.72;101813.94;4368365;32;31732;-79
2022/01/24 11:51:47;;;;;;;;;;;;;;;4.94;33.97;101806.50;4370700;32;33603;-80
2022/01/24 11:54:31;;;;;;;;;;;;;;;5.15;32.52;101797.72;4368653;32;36069;-80
2022/01/24 11:57:16;;;;;;;;;;;;;;;5.51;32.46;101795.28;4355763;32;34935;-78
2022/01/24 11:59:44;;;;;;;;;;;;;;;5.76;33.20;101798.63;4375765;32;34275;-79
2022/01/24 12:02:13;;;;;;;;;;;;;;;5.69;32.49;101789.22;4379938;32;34799;-79
2022/01/24 12:04:52;;;;;;;;;;;;;;;5.81;32.86;101787.88;4369886;32;34793;-79
2022/01/24 12:07:30;;;;;;;;;;;;;;;5.69;31.92;101789.22;4373431;32;33325;-80
2022/01/24 12:10:17;;;;;;;;;;;;;;;5.87;31.73;101785.84;4368282;32;33261;-80
2022/01/24 12:12:49;;;;;;;;;;;;;;;5.88;32.13;101789.34;4367751;32;35976;-79
2022/01/24 12:15:36;;;;;;;;;;;;;;;5.42;32.28;101784.28;4375177;32;33256;-80
2022/01/24 12:18:04;;;;;;;;;;;;;;;5.64;31.98;101777.16;4371366;32;35338;-80
2022/01/24 12:20:31;;;;;;;;;;;;;;;5.81;32.56;101786.13;4371308;32;33270;-82
2022/01/24 12:23:24;;;;;;;;;;;;;;;5.85;32.97;101786.81;4374692;32;33469;-79
2022/01/24 12:26:05;;;;;;;;;;;;;;;6.16;31.64;101780.13;4374805;32;36268;-79
2022/01/24 12:28:47;;;;;;;;;;;;;;;5.78;32.48;101780.06;4374748;32;33981;-79
2022/01/24 12:31:19;;;;;;;;;;;;;;;6.07;32.17;101772.59;4367185;32;32853;-79
2022/01/24 12:33:57;;;;;;;;;;;;;;;5.74;32.19;101781.09;4355715;32;36223;-79
2022/01/24 12:36:50;;;;;;;;;;;;;;;5.52;31.51;101780.31;4367246;32;34264;-80
2022/01/24 12:39:24;;;;;;;;;;;;;;;6.35;32.05;101773.06;4354906;32;34632;-79
2022/01/24 12:41:59;;;;;;;;;;;;;;;5.56;32.01;101771.34;4354791;32;31722;-79
2022/01/24 12:47:37;;;;;;;;;;;;;;;6.18;32.54;101770.38;4369535;32;34913;-79
2022/01/24 12:50:08;;;;;;;;;;;;;;;6.50;32.56;101774.16;4367221;32;34547;-79
2022/01/24 12:52:39;;;;;;;;;;;;;;;6.37;33.34;101773.00;4342991;32;31617;-79
2022/01/24 12:55:10;;;;;;;;;;;;;;;6.57;31.42;101773.81;4368675;32;33474;-79
2022/01/24 12:57:42;;;;;;;;;;;;;;;5.85;33.44;101776.25;4365275;32;35195;-80
2022/01/24 13:00:13;;;;;;;;;;;;;;;6.25;33.05;101766.50;4354976;32;35608;-81
2022/01/24 13:02:41;;;;;;;;;;;;;;;6.30;32.55;101766.28;4368515;32;33334;-80
2022/01/24 13:05:08;;;;;;;;;;;;;;;6.48;31.35;101766.31;4373593;32;34577;-79
2022/01/24 13:07:36;;;;;;;;;;;;;;;5.93;33.18;101774.12;4369462;32;34865;-79
2022/01/24 13:10:09;;;;;;;;;;;;;;;5.84;31.84;101777.19;4376495;32;35072;-82
2022/01/24 13:12:36;;;;;;;;;;;;;;;6.52;31.83;101767.03;4379669;32;34265;-79
2022/01/24 13:15:07;;;;;;;;;;;;;;;6.28;31.50;101762.84;4367757;32;33537;-79
2022/01/24 13:23:11;;;;;;;;;;;;;;;5.98;32.54;101764.25;4372706;32;33372;-80
2022/01/24 13:25:39;;;;;;;;;;;;;;;6.51;32.11;101757.38;4369813;32;34022;-82
2022/01/24 13:28:07;;;;;;;;;;;;;;;6.92;31.76;101764.22;4367248;32;36783;-79
2022/01/24 13:30:38;;;;;;;;;;;;;;;6.52;33.16;101759.94;4362188;32;34356;-79
2022/01/24 13:33:07;;;;;;;;;;;;;;;7.09;30.80;101758.97;4369860;32;33401;-79
2022/01/24 13:35:34;;;;;;;;;;;;;;;7.14;32.40;101765.75;4368295;32;32442;-79
2022/01/24 13:38:03;;;;;;;;;;;;;;;7.04;31.11;101760.97;4363481;32;34523;-80
2022/01/24 13:40:34;;;;;;;;;;;;;;;7.66;30.99;101758.69;4369587;32;35429;-79
2022/01/24 13:43:03;;;;;;;;;;;;;;;8.08;29.68;101759.09;4368155;32;32978;-82
2022/01/24 13:45:34;;;;;;;;;;;;;;;8.90;29.66;101760.69;4368422;32;34266;-83
2022/01/24 13:48:04;;;;;;;;;;;;;;;10.07;27.78;101760.81;4373444;32;35954;-78
2022/01/24 13:50:31;;;;;;;;;;;;;;;10.68;25.00;101754.22;4372906;32;34418;-80
2022/01/24 13:52:59;;;;;;;;;;;;;;;11.26;24.56;101743.31;4372680;32;31861;-79
2022/01/24 13:55:27;;;;;;;;;;;;;;;11.08;25.31;101741.87;4376921;32;34972;-80
2022/01/24 13:57:54;;;;;;;;;;;;;;;10.98;24.37;101741.63;4378029;32;34752;-78
2022/01/24 14:00:26;;;;;;;;;;;;;;;11.11;24.66;101741.69;4373166;32;34705;-78
2022/01/24 14:03:07;;;;;;;;;;;;;;;11.37;24.20;101749.66;4374333;32;33327;-78
2022/01/24 14:06:09;;;;;;;;;;;;;;;11.05;24.90;101744.75;4370616;32;35318;-78
2022/01/24 14:08:42;;;;;;;;;;;;;;;11.10;24.95;101743.50;4369846;32;35268;-78
2022/01/24 14:11:14;;;;;;;;;;;;;;;10.59;25.42;101751.31;4335107;32;932868;-79
2022/01/24 14:13:48;;;;;;;;;;;;;;;10.96;24.53;101743.50;4364697;32;32745;-78
2022/01/24 14:16:33;;;;;;;;;;;;;;;10.61;25.08;101747.63;4368339;32;33276;-78
2022/01/24 14:19:02;;;;;;;;;;;;;;;10.21;26.16;101752.88;4369107;32;35309;-78
2022/01/24 14:21:30;;;;;;;;;;;;;;;10.26;25.37;101751.63;4369109;32;34071;-78
2022/01/24 14:24:00;;;;;;;;;;;;;;;10.04;25.64;101751.25;4353349;32;33799;-79
2022/01/24 14:26:28;;;;;;;;;;;;;;;9.46;26.78;101746.81;4365862;32;33845;-79
2022/01/24 14:29:11;;;;;;;;;;;;;;;9.69;26.79;101757.78;4365853;32;35421;-78
2022/01/24 14:31:40;;;;;;;;;;;;;;;9.45;27.33;101745.13;4365726;32;35312;-78
2022/01/24 14:34:08;;;;;;;;;;;;;;;9.09;27.74;101742.75;4370857;32;33360;-77
2022/01/24 14:36:36;;;;;;;;;;;;;;;9.02;28.71;101741.44;4364808;32;33713;-78
2022/01/24 14:39:05;;;;;;;;;;;;;;;8.59;28.16;101746.56;4364808;32;36047;-80
2022/01/24 14:41:46;;;;;;;;;;;;;;;8.47;28.62;101738.44;4365410;32;34106;-78
2022/01/24 14:47:01;;;;;;;;;;;;;;;8.20;28.67;101742.59;4367884;32;33845;-80
2022/01/24 14:49:35;;;;;;;;;;;;;;;8.05;28.58;101736.28;4352233;32;34065;-77
2022/01/24 14:52:05;;;;;;;;;;;;;;;8.18;29.27;101739.97;4367253;32;34837;-78
2022/01/24 14:54:34;;;;;;;;;;;;;;;8.04;29.20;101736.34;4355711;32;34214;-77
2022/01/24 14:57:04;;;;;;;;;;;;;;;7.88;28.89;101738.97;4379118;32;33071;-79
2022/01/24 14:59:31;;;;;;;;;;;;;;;7.50;29.36;101736.56;4379020;32;35214;-78
2022/01/24 15:01:59;;;;;;;;;;;;;;;7.63;29.34;101733.22;4365900;32;34610;-77
2022/01/24 15:04:26;;;;;;;;;;;;;;;7.54;29.66;101740.78;4374612;32;31426;-80
2022/01/24 15:06:54;;;;;;;;;;;;;;;6.93;30.69;101745.63;4370372;32;34094;-77
2022/01/24 15:09:22;;;;;;;;;;;;;;;7.09;30.97;101735.16;4357231;32;35319;-81
2022/01/24 15:11:50;;;;;;;;;;;;;;;7.29;30.59;101740.31;4366539;32;35057;-77
2022/01/24 15:14:33;;;;;;;;;;;;;;;6.99;30.87;101747.94;4378503;32;33045;-77
2022/01/24 15:25:31;;;;;;;;;;;;;;;6.28;31.29;101762.84;4369370;32;31992;-77
2022/01/24 15:27:59;;;;;;;;;;;;;;;5.96;32.19;101763.47;4365659;32;33723;-78
2022/01/24 15:30:26;;;;;;;;;;;;;;;5.66;32.83;101760.31;4366409;32;36716;-77
2022/01/24 15:32:58;;;;;;;;;;;;;;;5.56;32.56;101766.06;4367360;32;33316;-78
2022/01/24 15:35:26;;;;;;;;;;;;;;;5.28;33.31;101756.75;4373646;32;33670;-79
2022/01/24 15:37:53;;;;;;;;;;;;;;;5.39;33.15;101765.94;4371447;32;33906;-78
2022/01/24 15:40:24;;;;;;;;;;;;;;;5.31;32.86;101768.03;4366208;32;34697;-78
2022/01/24 15:43:11;;;;;;;;;;;;;;;4.99;33.70;101773.75;4365920;32;33942;-77
2022/01/24 15:48:25;;;;;;;;;;;;;;;4.83;34.40;101769.16;4374384;32;34472;-79
2022/01/24 15:50:52;;;;;;;;;;;;;;;4.67;34.18;101766.25;4374514;32;35895;-77
2022/01/24 15:53:20;;;;;;;;;;;;;;;4.41;34.68;101776.94;4371862;32;34059;-78
2022/01/24 15:58:33;;;;;;;;;;;;;;;3.88;36.10;101780.66;4358980;32;34036;-81
2022/01/24 16:01:00;;;;;;;;;;;;;;;3.46;37.12;101782.16;4368282;32;34706;-78
2022/01/24 16:03:28;;;;;;;;;;;;;;;3.16;38.02;101792.84;4371633;32;33695;-79
2022/01/24 16:05:56;;;;;;;;;;;;;;;3.02;38.36;101789.78;4370829;32;34254;-78